Buoy 41991

sailwx.info

Track history (hours):
 
Tides and Currents Weather Stations Pressure Air Temp Water Temp Dewpoint Dewpoint Depression Visibility Wind Speed Wind Dir Waves Ship Positions

Drifting buoy 41991

Last reported at 2015-Apr-01 20:57 UTC. Time now 2015-Apr-01 22:35 UTC.
Position N 30°15' W 042°21'.

Water temperature 21.4 ° C

Date/timePositionNaut miles runAvg speedWind from/ knotsBaromVisibWave heightAir tempDewpointWater temp
2015-Apr-01 20:57N 30°15' W 042°21'0 0.0 21.4
2015-Apr-01 20:06N 30°15' W 042°21'1 8.6 21.5
2015-Apr-01 20:02N 30°15' W 042°22'1 0.2 21.5
2015-Apr-01 17:07N 30°15' W 042°21'0 0.1 21.6
2015-Apr-01 12:02N 30°16' W 042°21'028.2
2015-Apr-01 12:01N 30°16' W 042°21'0 0.0 21.1
2015-Apr-01 11:12N 30°16' W 042°21'0 5.3 21.0
2015-Apr-01 11:09N 30°16' W 042°21'0 0.0 21.0
2015-Apr-01 09:43N 30°16' W 042°21'1 8.4 20.9
2015-Apr-01 09:36N 30°15' W 042°20'1 8.4 20.9
2015-Apr-01 09:29N 30°16' W 042°21'1 0.6 20.9
2015-Apr-01 07:58N 30°15' W 042°20'1 0.6 21.0
2015-Apr-01 07:03N 30°15' W 042°20'1 0.3 20.9
2015-Apr-01 04:03N 30°15' W 042°18'111.4 21.0
2015-Apr-01 03:57N 30°15' W 042°17'1 0.2 21.0
2015-Mar-31 22:52N 30°16' W 042°18'1 0.2 21.1
2015-Mar-31 18:03N 30°16' W 042°17'1 0.2 21.2
2015-Mar-31 14:08N 30°16' W 042°18'2 0.3 20.9
2015-Mar-31 08:54N 30°15' W 042°19'0 0.2 20.8
2015-Mar-31 07:13N 30°15' W 042°19'0 0.4 20.8
2015-Mar-31 05:52N 30°15' W 042°19'0 3.2 20.8
2015-Mar-31 05:49N 30°15' W 042°19'0 0.0 20.8
2015-Mar-31 04:12N 30°15' W 042°19'112.7 20.8
2015-Mar-31 04:07N 30°15' W 042°18'0 0.0 20.8
2015-Mar-31 01:41N 30°15' W 042°18'0 0.0 20.9
2015-Mar-31 00:53N 30°15' W 042°18'1 1.0 20.9
2015-Mar-31 00:06N 30°15' W 042°19'0 0.0 20.9
2015-Mar-31 00:03N 30°15' W 042°19'0 0.0 20.9
2015-Mar-30 23:15N 30°15' W 042°19'110.5 20.9
2015-Mar-30 23:09N 30°16' W 042°20'0 0.0 20.9
2015-Mar-30 23:07N 30°16' W 042°20'0 0.4 20.9
2015-Mar-30 21:47N 30°16' W 042°19'0 0.8 20.9
2015-Mar-30 21:10N 30°16' W 042°20'0 0.7 21.0
2015-Mar-30 20:27N 30°16' W 042°19'0 1.8 21.1
2015-Mar-30 20:25N 30°16' W 042°19'0 0.0 21.1
2015-Mar-30 20:11N 30°16' W 042°19'0 0.0 21.0
2015-Mar-30 19:23N 30°16' W 042°19'0 0.0 21.1
2015-Mar-30 18:47N 30°16' W 042°19'0 2.6 21.1
2015-Mar-30 18:44N 30°16' W 042°20'1 1.8 21.1
2015-Mar-30 18:27N 30°16' W 042°20'0 0.4 21.1
2015-Mar-30 17:30N 30°16' W 042°20'1 0.4 21.0
2015-Mar-30 15:49N 30°16' W 042°20'1 0.3 20.9
2015-Mar-30 13:37N 30°16' W 042°19'0 0.0 20.9
2015-Mar-30 12:50N 30°16' W 042°19'0 0.0 20.8
2015-Mar-30 12:47N 30°16' W 042°19'0 0.4 20.8
2015-Mar-30 11:53N 30°16' W 042°20'115.1 20.8
2015-Mar-30 11:48N 30°16' W 042°18'0 0.0 20.8
2015-Mar-30 10:31N 30°16' W 042°18'0 0.0 20.8
2015-Mar-30 09:06N 30°16' W 042°18'0 0.0 20.7
2015-Mar-30 08:59N 30°16' W 042°18'0 5.9 20.7
2015-Mar-30 08:57N 30°16' W 042°18'0 2.9 20.7
2015-Mar-30 08:53N 30°16' W 042°18'0 0.1 20.7
2015-Mar-30 07:24N 30°16' W 042°18'1 3.4 20.7
2015-Mar-30 07:15N 30°16' W 042°18'110.2 20.7
2015-Mar-30 07:12N 30°16' W 042°18'115.3 20.7
2015-Mar-30 07:10N 30°16' W 042°18'1 0.9 20.7
2015-Mar-30 06:04N 30°16' W 042°17'1 9.9 20.7
2015-Mar-30 05:58N 30°16' W 042°16'0 0.0 20.7
2015-Mar-30 04:28N 30°16' W 042°16'0 1.2 20.7
2015-Mar-30 04:24N 30°16' W 042°16'217.5 20.7
2015-Mar-30 04:17N 30°17' W 042°14'0 0.0 20.7
2015-Mar-30 01:11N 30°17' W 042°14'111.6 20.7
2015-Mar-30 01:08N 30°17' W 042°14'1 1.7 20.7
2015-Mar-30 00:27N 30°17' W 042°15'0 0.0 20.7
2015-Mar-29 23:35N 30°17' W 042°15'1 4.5 20.7
2015-Mar-29 23:28N 30°17' W 042°15'0 0.3 20.8
2015-Mar-29 22:47N 30°17' W 042°15'122.1 20.8
2015-Mar-29 22:43N 30°17' W 042°13'0 0.2 20.8
2015-Mar-29 20:37N 30°17' W 042°14'1 1.2 20.8
2015-Mar-29 19:58N 30°16' W 042°13'0 2.9 20.8
2015-Mar-29 19:52N 30°16' W 042°14'0 0.0 20.8
2015-Mar-29 18:59N 30°16' W 042°14'1 0.6 20.9
2015-Mar-29 17:42N 30°16' W 042°13'1 8.8 20.9
2015-Mar-29 17:35N 30°15' W 042°12'0 0.0 20.9
2015-Mar-29 17:12N 30°15' W 042°12'0 0.0 20.9
2015-Mar-29 15:59N 30°15' W 042°12'1 0.5 20.9
2015-Mar-29 13:57N 30°14' W 042°12'0 0.5 20.8
2015-Mar-29 13:11N 30°14' W 042°11'1 0.6 20.8
2015-Mar-29 12:12N 30°14' W 042°12'118.9 20.8
2015-Mar-29 12:08N 30°14' W 042°10'0 0.0 20.8
2015-Mar-29 11:29N 30°14' W 042°10'0 3.7
2015-Mar-29 11:22N 30°14' W 042°10'0 0.0 20.8
2015-Mar-29 09:24N 30°14' W 042°10'1 2.9 20.7
2015-Mar-29 09:12N 30°13' W 042°10'013.4 20.7
2015-Mar-29 09:10N 30°14' W 042°10'013.4 20.7
2015-Mar-29 09:08N 30°13' W 042°10'0 0.0 20.7
2015-Mar-29 07:45N 30°13' W 042°10'0 1.6 20.7
2015-Mar-29 07:36N 30°13' W 042°10'0 1.8 20.7
2015-Mar-29 07:27N 30°13' W 042°10'0 0.0 20.7
2015-Mar-29 06:19N 30°13' W 042°10'0 2.1 20.7
2015-Mar-29 06:12N 30°13' W 042°10'0 0.0 20.7
2015-Mar-29 06:10N 30°13' W 042°10'0 0.0 20.7
2015-Mar-29 04:36N 30°13' W 042°10'0 1.4 20.7
2015-Mar-29 04:28N 30°13' W 042°10'0 0.0 20.7
2015-Mar-29 01:34N 30°13' W 042°10'0 2.1 20.7
2015-Mar-29 01:28N 30°14' W 042°10'1 1.4 20.7
2015-Mar-29 00:45N 30°13' W 042°11'0 0.2 20.7
2015-Mar-28 23:56N 30°14' W 042°11'1 0.8 20.7
2015-Mar-28 23:07N 30°14' W 042°12'0 1.9 20.7
2015-Mar-28 23:02N 30°14' W 042°12'0 0.0 20.7
2015-Mar-28 22:12N 30°14' W 042°12'1 0.6 20.7
2015-Mar-28 20:55N 30°14' W 042°11'0 2.6 20.7
2015-Mar-28 20:48N 30°14' W 042°11'1 2.5 20.7
2015-Mar-28 20:25N 30°14' W 042°12'0 0.0 20.8
2015-Mar-28 19:10N 30°14' W 042°12'0 1.6 20.8
2015-Mar-28 19:07N 30°14' W 042°12'0 0.4 20.8
2015-Mar-28 17:52N 30°15' W 042°12'1 1.6 20.8
2015-Mar-28 17:27N 30°15' W 042°12'0 0.0 20.8
2015-Mar-28 16:12N 30°15' W 042°12'0 0.2 20.8
2015-Mar-28 14:16N 30°15' W 042°12'0 0.0 20.7
2015-Mar-28 13:30N 30°15' W 042°12'0 2.4 20.7
2015-Mar-28 13:21N 30°15' W 042°12'0 0.3
2015-Mar-28 12:33N 30°15' W 042°12'1 8.7 20.7
2015-Mar-28 12:29N 30°15' W 042°11'0 0.0 20.7
2015-Mar-28 10:51N 30°15' W 042°11'0 0.0 20.7
2015-Mar-28 09:54N 30°15' W 042°11'0 0.9 20.7
2015-Mar-28 09:43N 30°15' W 042°11'0 4.9 20.7
2015-Mar-28 09:38N 30°15' W 042°11'0 0.0 20.7
2015-Mar-28 09:29N 30°15' W 042°11'0 3.2 20.7
2015-Mar-28 09:25N 30°15' W 042°11'0 5.0 20.7
2015-Mar-28 09:20N 30°15' W 042°11'0 0.0 20.7
2015-Mar-28 08:12N 30°15' W 042°11'0 1.7 20.7
2015-Mar-28 07:56N 30°15' W 042°10'0 0.0 20.7
2015-Mar-28 07:45N 30°15' W 042°10'0 0.3 20.7
2015-Mar-28 06:34N 30°16' W 042°10'0 0.0 20.7
2015-Mar-28 06:31N 30°16' W 042°10'0 3.0 20.7
2015-Mar-28 06:22N 30°16' W 042°10'0 0.0 20.7
2015-Mar-28 04:47N 30°16' W 042°10'1 0.5 20.8
2015-Mar-28 01:51N 30°15' W 042°08'1 0.7 20.8
2015-Mar-28 01:04N 30°16' W 042°08'0 0.1 20.8
2015-Mar-28 00:12N 30°16' W 042°08'1 0.9 20.8
2015-Mar-27 23:28N 30°16' W 042°09'1 8.1 20.8
2015-Mar-27 23:23N 30°15' W 042°08'0 0.0 20.8
2015-Mar-27 22:34N 30°15' W 042°08'0 0.4 20.8
2015-Mar-27 21:23N 30°15' W 042°08'1 1.7 20.9
2015-Mar-27 21:00N 30°16' W 042°07'0 2.6 20.9
2015-Mar-27 20:55N 30°16' W 042°07'0 0.0 20.9
2015-Mar-27 19:45N 30°16' W 042°07'0 0.5 20.9
2015-Mar-27 19:22N 30°16' W 042°07'0 0.0 20.9
2015-Mar-27 19:16N 30°16' W 042°07'0 0.0 20.9
2015-Mar-27 18:03N 30°16' W 042°07'0 0.6 20.9
2015-Mar-27 17:40N 30°16' W 042°07'1 0.6 20.9
2015-Mar-27 16:23N 30°15' W 042°08'1 5.7 20.9
2015-Mar-27 16:11N 30°16' W 042°07'1 0.4 20.9
2015-Mar-27 14:40N 30°16' W 042°08'0 0.1 20.9
2015-Mar-27 13:52N 30°16' W 042°08'1 0.6 20.9
2015-Mar-27 12:58N 30°15' W 042°07'0 2.4 20.9
2015-Mar-27 12:53N 30°15' W 042°07'1 1.3 20.9
2015-Mar-27 12:03N 30°15' W 042°06'0 0.4 20.8
2015-Mar-27 11:10N 30°15' W 042°07'0 0.0 20.8
2015-Mar-27 10:23N 30°15' W 042°07'0 0.0 20.8
2015-Mar-27 10:05N 30°15' W 042°07'0 6.7 20.8
2015-Mar-27 10:02N 30°15' W 042°06'0 0.0 20.8
2015-Mar-27 09:39N 30°15' W 042°06'0 3.6 20.8
2015-Mar-27 09:31N 30°15' W 042°06'1 0.5 20.8
2015-Mar-27 07:53N 30°15' W 042°05'0 0.0 20.8
2015-Mar-27 07:07N 30°15' W 042°05'0 1.4 20.8
2015-Mar-27 06:46N 30°15' W 042°06'0 0.0 20.8
2015-Mar-27 06:42N 30°15' W 042°06'0 0.7 20.8
2015-Mar-27 06:12N 30°15' W 042°05'0 0.0 20.8
2015-Mar-27 04:59N 30°15' W 042°05'0 0.1 20.8
2015-Mar-27 00:35N 30°16' W 042°05'0 0.3 20.9
2015-Mar-26 23:11N 30°16' W 042°06'0 0.7 20.9
2015-Mar-26 22:57N 30°16' W 042°06'0 0.1 20.9
2015-Mar-26 21:08N 30°16' W 042°06'0 0.0 20.9
2015-Mar-26 19:53N 30°16' W 042°06'0 4.7 20.9
2015-Mar-26 19:49N 30°16' W 042°06'0 0.3 20.9
2015-Mar-26 18:29N 30°17' W 042°06'2 0.5 20.9
2015-Mar-26 14:11N 30°15' W 042°08'2 0.5 20.9
2015-Mar-26 08:48N 30°13' W 042°10'0 0.0 21.0
2015-Mar-26 08:09N 30°13' W 042°10'0 1.2 21.0
2015-Mar-26 08:05N 30°14' W 042°10'0 4.8 21.0
2015-Mar-26 08:01N 30°13' W 042°11'0 0.3 21.0
2015-Mar-26 07:11N 30°14' W 042°11'2 0.8 21.0
2015-Mar-26 05:10N 30°14' W 042°13'3 0.6 21.1
2015-Mar-26 00:11N 30°15' W 042°16'0 0.0 21.2
2015-Mar-26 00:02N 30°15' W 042°16'1 0.2 21.2
2015-Mar-25 20:35N 30°16' W 042°17'0 0.4 21.3
2015-Mar-25 20:28N 30°16' W 042°17'0 0.8 21.3
2015-Mar-25 20:19N 30°16' W 042°17'0 0.6 21.3
2015-Mar-25 19:45N 30°16' W 042°17'0 0.0 21.3
2015-Mar-25 18:53N 30°16' W 042°17'2 3.2 21.3
2015-Mar-25 18:19N 30°16' W 042°19'0 1.2 21.3
2015-Mar-25 17:58N 30°16' W 042°18'0 0.1 21.4
2015-Mar-25 16:47N 30°16' W 042°18'0 0.0 21.4
2015-Mar-25 16:39N 30°16' W 042°18'0 0.2 21.4
2015-Mar-25 14:58N 30°16' W 042°18'1 2.0 21.3
2015-Mar-25 14:26N 30°17' W 042°17'0 0.2
2015-Mar-25 12:49N 30°17' W 042°17'1 1.3 21.2
2015-Mar-25 11:52N 30°18' W 042°18'0 0.2 21.2
2015-Mar-25 09:58N 30°18' W 042°18'0 3.0 21.2
2015-Mar-25 09:49N 30°18' W 042°18'0 0.8 21.2
2015-Mar-25 09:17N 30°18' W 042°18'0 4.1 21.1
2015-Mar-25 09:12N 30°18' W 042°17'0 0.0 21.1
2015-Mar-25 08:18N 30°18' W 042°17'1 7.8 21.2
2015-Mar-25 08:13N 30°19' W 042°18'0 0.0
2015-Mar-25 07:37N 30°19' W 042°18'0 6.1 21.2
2015-Mar-25 07:34N 30°19' W 042°18'0 0.0 21.2
2015-Mar-25 06:58N 30°19' W 042°18'0 0.5 21.2
2015-Mar-25 06:38N 30°19' W 042°18'118.5 21.2
2015-Mar-25 06:35N 30°20' W 042°18'1 7.9 21.2
2015-Mar-25 06:28N 30°19' W 042°18'1 0.8 21.2
2015-Mar-25 05:20N 30°20' W 042°18'1 5.7 21.2
2015-Mar-25 05:11N 30°21' W 042°18'0 0.0 21.2
2015-Mar-25 03:40N 30°21' W 042°18'1 6.7 21.2
2015-Mar-25 03:35N 30°21' W 042°18'0 0.0 21.2
2015-Mar-25 01:17N 30°21' W 042°18'0 4.4 21.3
2015-Mar-25 01:12N 30°21' W 042°18'1 1.1 21.3
2015-Mar-25 00:31N 30°21' W 042°19'1 0.2 21.3
2015-Mar-24 21:52N 30°21' W 042°18'0 0.0 21.4
2015-Mar-24 20:57N 30°21' W 042°18'0 0.3 21.4
2015-Mar-24 19:56N 30°21' W 042°18'113.8 21.4
2015-Mar-24 19:53N 30°21' W 042°19'0 0.1 21.4
2015-Mar-24 18:11N 30°21' W 042°19'1 0.6 21.4
2015-Mar-24 16:56N 30°21' W 042°18'1 0.5 21.4
2015-Mar-24 15:15N 30°22' W 042°18'1 9.8 21.4
2015-Mar-24 15:11N 30°22' W 042°18'1 0.5 21.4
2015-Mar-24 13:58N 30°22' W 042°18'0 0.0 21.3
2015-Mar-24 13:08N 30°22' W 042°18'0 0.1 21.2
2015-Mar-24 11:30N 30°22' W 042°18'0 5.5 21.2
2015-Mar-24 11:26N 30°23' W 042°18'1 0.3 21.2
2015-Mar-24 08:42N 30°23' W 042°17'0 0.4 21.1
2015-Mar-24 07:58N 30°23' W 042°16'1 0.7 21.1
2015-Mar-24 07:11N 30°24' W 042°16'0 1.2 21.1
2015-Mar-24 07:01N 30°24' W 042°16'0 1.1 21.1
2015-Mar-24 06:54N 30°24' W 042°16'2 0.3 21.1
2015-Mar-24 01:38N 30°25' W 042°16'0 0.4 21.1
2015-Mar-24 00:48N 30°25' W 042°17'0 0.1 21.1
2015-Mar-23 23:58N 30°25' W 042°17'1 0.7 21.1
2015-Mar-23 23:10N 30°25' W 042°16'1 8.2 21.1
2015-Mar-23 23:03N 30°26' W 042°17'1 0.3
2015-Mar-23 20:08N 30°26' W 042°16'0 0.0 21.1
2015-Mar-23 19:48N 30°26' W 042°16'1 0.7 21.1
2015-Mar-23 18:01N 30°27' W 042°17'1 0.8 21.2
2015-Mar-23 17:08N 30°26' W 042°16'1 0.1 21.2
2015-Mar-23 11:52N 30°26' W 042°16'0 1.6
2015-Mar-23 11:50N 30°26' W 042°16'0 0.3 21.1
2015-Mar-23 10:57N 30°26' W 042°16'013.4 21.1
2015-Mar-23 10:55N 30°26' W 042°16'0 0.0 21.1
2015-Mar-23 10:07N 30°26' W 042°16'1 6.1 21.0
2015-Mar-23 10:02N 30°26' W 042°15'0 0.0 21.0
2015-Mar-23 09:12N 30°26' W 042°15'0 0.4 21.1
2015-Mar-23 08:47N 30°26' W 042°15'1 0.3 21.0
2015-Mar-23 06:58N 30°27' W 042°16'1 0.7 21.1
2015-Mar-23 05:43N 30°27' W 042°15'0 0.2 21.1
2015-Mar-23 04:03N 30°27' W 042°15'111.5 21.1
2015-Mar-23 03:56N 30°28' W 042°14'0 0.0 21.1
2015-Mar-23 01:53N 30°28' W 042°14'0 0.1 21.1
2015-Mar-22 22:39N 30°28' W 042°14'   21.1
Track history (hours):
 
Tides and Currents Weather Stations Pressure Air Temp Water Temp Dewpoint Dewpoint Depression Visibility Wind Speed Wind Dir Waves Ship Positions

Drifting buoy 41991

Last reported at 2015-Apr-01 20:57 UTC. Time now 2015-Apr-01 22:35 UTC.
Position N 30°15' W 042°21'.

Water temperature 21.4 ° C

Date/timePositionNaut miles runAvg speedWind from/ knotsBaromVisibWave heightAir tempDewpointWater temp
2015-Apr-01 20:57N 30°15' W 042°21'0 0.0 21.4
2015-Apr-01 20:06N 30°15' W 042°21'1 8.6 21.5
2015-Apr-01 20:02N 30°15' W 042°22'1 0.2 21.5
2015-Apr-01 17:07N 30°15' W 042°21'0 0.1 21.6
2015-Apr-01 12:02N 30°16' W 042°21'028.2
2015-Apr-01 12:01N 30°16' W 042°21'0 0.0 21.1
2015-Apr-01 11:12N 30°16' W 042°21'0 5.3 21.0
2015-Apr-01 11:09N 30°16' W 042°21'0 0.0 21.0
2015-Apr-01 09:43N 30°16' W 042°21'1 8.4 20.9
2015-Apr-01 09:36N 30°15' W 042°20'1 8.4 20.9
2015-Apr-01 09:29N 30°16' W 042°21'1 0.6 20.9
2015-Apr-01 07:58N 30°15' W 042°20'1 0.6 21.0
2015-Apr-01 07:03N 30°15' W 042°20'1 0.3 20.9
2015-Apr-01 04:03N 30°15' W 042°18'111.4 21.0
2015-Apr-01 03:57N 30°15' W 042°17'1 0.2 21.0
2015-Mar-31 22:52N 30°16' W 042°18'1 0.2 21.1
2015-Mar-31 18:03N 30°16' W 042°17'1 0.2 21.2
2015-Mar-31 14:08N 30°16' W 042°18'2 0.3 20.9
2015-Mar-31 08:54N 30°15' W 042°19'0 0.2 20.8
2015-Mar-31 07:13N 30°15' W 042°19'0 0.4 20.8
2015-Mar-31 05:52N 30°15' W 042°19'0 3.2 20.8
2015-Mar-31 05:49N 30°15' W 042°19'0 0.0 20.8
2015-Mar-31 04:12N 30°15' W 042°19'112.7 20.8
2015-Mar-31 04:07N 30°15' W 042°18'0 0.0 20.8
2015-Mar-31 01:41N 30°15' W 042°18'0 0.0 20.9
2015-Mar-31 00:53N 30°15' W 042°18'1 1.0 20.9
2015-Mar-31 00:06N 30°15' W 042°19'0 0.0 20.9
2015-Mar-31 00:03N 30°15' W 042°19'0 0.0 20.9
2015-Mar-30 23:15N 30°15' W 042°19'110.5 20.9
2015-Mar-30 23:09N 30°16' W 042°20'0 0.0 20.9
2015-Mar-30 23:07N 30°16' W 042°20'0 0.4 20.9
2015-Mar-30 21:47N 30°16' W 042°19'0 0.8 20.9
2015-Mar-30 21:10N 30°16' W 042°20'0 0.7 21.0
2015-Mar-30 20:27N 30°16' W 042°19'0 1.8 21.1
2015-Mar-30 20:25N 30°16' W 042°19'0 0.0 21.1
2015-Mar-30 20:11N 30°16' W 042°19'0 0.0 21.0
2015-Mar-30 19:23N 30°16' W 042°19'0 0.0 21.1
2015-Mar-30 18:47N 30°16' W 042°19'0 2.6 21.1
2015-Mar-30 18:44N 30°16' W 042°20'1 1.8 21.1
2015-Mar-30 18:27N 30°16' W 042°20'0 0.4 21.1
2015-Mar-30 17:30N 30°16' W 042°20'1 0.4 21.0
2015-Mar-30 15:49N 30°16' W 042°20'1 0.3 20.9
2015-Mar-30 13:37N 30°16' W 042°19'0 0.0 20.9
2015-Mar-30 12:50N 30°16' W 042°19'0 0.0 20.8
2015-Mar-30 12:47N 30°16' W 042°19'0 0.4 20.8
2015-Mar-30 11:53N 30°16' W 042°20'115.1 20.8
2015-Mar-30 11:48N 30°16' W 042°18'0 0.0 20.8
2015-Mar-30 10:31N 30°16' W 042°18'0 0.0 20.8
2015-Mar-30 09:06N 30°16' W 042°18'0 0.0 20.7
2015-Mar-30 08:59N 30°16' W 042°18'0 5.9 20.7
2015-Mar-30 08:57N 30°16' W 042°18'0 2.9 20.7
2015-Mar-30 08:53N 30°16' W 042°18'0 0.1 20.7
2015-Mar-30 07:24N 30°16' W 042°18'1 3.4 20.7
2015-Mar-30 07:15N 30°16' W 042°18'110.2 20.7
2015-Mar-30 07:12N 30°16' W 042°18'115.3 20.7
2015-Mar-30 07:10N 30°16' W 042°18'1 0.9 20.7
2015-Mar-30 06:04N 30°16' W 042°17'1 9.9 20.7
2015-Mar-30 05:58N 30°16' W 042°16'0 0.0 20.7
2015-Mar-30 04:28N 30°16' W 042°16'0 1.2 20.7
2015-Mar-30 04:24N 30°16' W 042°16'217.5 20.7
2015-Mar-30 04:17N 30°17' W 042°14'0 0.0 20.7
2015-Mar-30 01:11N 30°17' W 042°14'111.6 20.7
2015-Mar-30 01:08N 30°17' W 042°14'1 1.7 20.7
2015-Mar-30 00:27N 30°17' W 042°15'0 0.0 20.7
2015-Mar-29 23:35N 30°17' W 042°15'1 4.5 20.7
2015-Mar-29 23:28N 30°17' W 042°15'0 0.3 20.8
2015-Mar-29 22:47N 30°17' W 042°15'122.1 20.8
2015-Mar-29 22:43N 30°17' W 042°13'0 0.2 20.8
2015-Mar-29 20:37N 30°17' W 042°14'1 1.2 20.8
2015-Mar-29 19:58N 30°16' W 042°13'0 2.9 20.8
2015-Mar-29 19:52N 30°16' W 042°14'0 0.0 20.8
2015-Mar-29 18:59N 30°16' W 042°14'1 0.6 20.9
2015-Mar-29 17:42N 30°16' W 042°13'1 8.8 20.9
2015-Mar-29 17:35N 30°15' W 042°12'0 0.0 20.9
2015-Mar-29 17:12N 30°15' W 042°12'0 0.0 20.9
2015-Mar-29 15:59N 30°15' W 042°12'1 0.5 20.9
2015-Mar-29 13:57N 30°14' W 042°12'0 0.5 20.8
2015-Mar-29 13:11N 30°14' W 042°11'1 0.6 20.8
2015-Mar-29 12:12N 30°14' W 042°12'118.9 20.8
2015-Mar-29 12:08N 30°14' W 042°10'0 0.0 20.8
2015-Mar-29 11:29N 30°14' W 042°10'0 3.7
2015-Mar-29 11:22N 30°14' W 042°10'0 0.0 20.8
2015-Mar-29 09:24N 30°14' W 042°10'1 2.9 20.7
2015-Mar-29 09:12N 30°13' W 042°10'013.4 20.7
2015-Mar-29 09:10N 30°14' W 042°10'013.4 20.7
2015-Mar-29 09:08N 30°13' W 042°10'0 0.0 20.7
2015-Mar-29 07:45N 30°13' W 042°10'0 1.6 20.7
2015-Mar-29 07:36N 30°13' W 042°10'0 1.8 20.7
2015-Mar-29 07:27N 30°13' W 042°10'0 0.0 20.7
2015-Mar-29 06:19N 30°13' W 042°10'0 2.1 20.7
2015-Mar-29 06:12N 30°13' W 042°10'0 0.0 20.7
2015-Mar-29 06:10N 30°13' W 042°10'0 0.0 20.7
2015-Mar-29 04:36N 30°13' W 042°10'0 1.4 20.7
2015-Mar-29 04:28N 30°13' W 042°10'0 0.0 20.7
2015-Mar-29 01:34N 30°13' W 042°10'0 2.1 20.7
2015-Mar-29 01:28N 30°14' W 042°10'1 1.4 20.7
2015-Mar-29 00:45N 30°13' W 042°11'0 0.2 20.7
2015-Mar-28 23:56N 30°14' W 042°11'1 0.8 20.7
2015-Mar-28 23:07N 30°14' W 042°12'0 1.9 20.7
2015-Mar-28 23:02N 30°14' W 042°12'0 0.0 20.7
2015-Mar-28 22:12N 30°14' W 042°12'1 0.6 20.7
2015-Mar-28 20:55N 30°14' W 042°11'0 2.6 20.7
2015-Mar-28 20:48N 30°14' W 042°11'1 2.5 20.7
2015-Mar-28 20:25N 30°14' W 042°12'0 0.0 20.8
2015-Mar-28 19:10N 30°14' W 042°12'0 1.6 20.8
2015-Mar-28 19:07N 30°14' W 042°12'0 0.4 20.8
2015-Mar-28 17:52N 30°15' W 042°12'1 1.6 20.8
2015-Mar-28 17:27N 30°15' W 042°12'0 0.0 20.8
2015-Mar-28 16:12N 30°15' W 042°12'0 0.2 20.8
2015-Mar-28 14:16N 30°15' W 042°12'0 0.0 20.7
2015-Mar-28 13:30N 30°15' W 042°12'0 2.4 20.7
2015-Mar-28 13:21N 30°15' W 042°12'0 0.3
2015-Mar-28 12:33N 30°15' W 042°12'1 8.7 20.7
2015-Mar-28 12:29N 30°15' W 042°11'0 0.0 20.7
2015-Mar-28 10:51N 30°15' W 042°11'0 0.0 20.7
2015-Mar-28 09:54N 30°15' W 042°11'0 0.9 20.7
2015-Mar-28 09:43N 30°15' W 042°11'0 4.9 20.7
2015-Mar-28 09:38N 30°15' W 042°11'0 0.0 20.7
2015-Mar-28 09:29N 30°15' W 042°11'0 3.2 20.7
2015-Mar-28 09:25N 30°15' W 042°11'0 5.0 20.7
2015-Mar-28 09:20N 30°15' W 042°11'0 0.0 20.7
2015-Mar-28 08:12N 30°15' W 042°11'0 1.7 20.7
2015-Mar-28 07:56N 30°15' W 042°10'0 0.0 20.7
2015-Mar-28 07:45N 30°15' W 042°10'0 0.3 20.7
2015-Mar-28 06:34N 30°16' W 042°10'0 0.0 20.7
2015-Mar-28 06:31N 30°16' W 042°10'0 3.0 20.7
2015-Mar-28 06:22N 30°16' W 042°10'0 0.0 20.7
2015-Mar-28 04:47N 30°16' W 042°10'1 0.5 20.8
2015-Mar-28 01:51N 30°15' W 042°08'1 0.7 20.8
2015-Mar-28 01:04N 30°16' W 042°08'0 0.1 20.8
2015-Mar-28 00:12N 30°16' W 042°08'1 0.9 20.8
2015-Mar-27 23:28N 30°16' W 042°09'1 8.1 20.8
2015-Mar-27 23:23N 30°15' W 042°08'0 0.0 20.8
2015-Mar-27 22:34N 30°15' W 042°08'0 0.4 20.8
2015-Mar-27 21:23N 30°15' W 042°08'1 1.7 20.9
2015-Mar-27 21:00N 30°16' W 042°07'0 2.6 20.9
2015-Mar-27 20:55N 30°16' W 042°07'0 0.0 20.9
2015-Mar-27 19:45N 30°16' W 042°07'0 0.5 20.9
2015-Mar-27 19:22N 30°16' W 042°07'0 0.0 20.9
2015-Mar-27 19:16N 30°16' W 042°07'0 0.0 20.9
2015-Mar-27 18:03N 30°16' W 042°07'0 0.6 20.9
2015-Mar-27 17:40N 30°16' W 042°07'1 0.6 20.9
2015-Mar-27 16:23N 30°15' W 042°08'1 5.7 20.9
2015-Mar-27 16:11N 30°16' W 042°07'1 0.4 20.9
2015-Mar-27 14:40N 30°16' W 042°08'0 0.1 20.9
2015-Mar-27 13:52N 30°16' W 042°08'1 0.6 20.9
2015-Mar-27 12:58N 30°15' W 042°07'0 2.4 20.9
2015-Mar-27 12:53N 30°15' W 042°07'1 1.3 20.9
2015-Mar-27 12:03N 30°15' W 042°06'0 0.4 20.8
2015-Mar-27 11:10N 30°15' W 042°07'0 0.0 20.8
2015-Mar-27 10:23N 30°15' W 042°07'0 0.0 20.8
2015-Mar-27 10:05N 30°15' W 042°07'0 6.7 20.8
2015-Mar-27 10:02N 30°15' W 042°06'0 0.0 20.8
2015-Mar-27 09:39N 30°15' W 042°06'0 3.6 20.8
2015-Mar-27 09:31N 30°15' W 042°06'1 0.5 20.8
2015-Mar-27 07:53N 30°15' W 042°05'0 0.0 20.8
2015-Mar-27 07:07N 30°15' W 042°05'0 1.4 20.8
2015-Mar-27 06:46N 30°15' W 042°06'0 0.0 20.8
2015-Mar-27 06:42N 30°15' W 042°06'0 0.7 20.8
2015-Mar-27 06:12N 30°15' W 042°05'0 0.0 20.8
2015-Mar-27 04:59N 30°15' W 042°05'0 0.1 20.8
2015-Mar-27 00:35N 30°16' W 042°05'0 0.3 20.9
2015-Mar-26 23:11N 30°16' W 042°06'0 0.7 20.9
2015-Mar-26 22:57N 30°16' W 042°06'0 0.1 20.9
2015-Mar-26 21:08N 30°16' W 042°06'0 0.0 20.9
2015-Mar-26 19:53N 30°16' W 042°06'0 4.7 20.9
2015-Mar-26 19:49N 30°16' W 042°06'0 0.3 20.9
2015-Mar-26 18:29N 30°17' W 042°06'2 0.5 20.9
2015-Mar-26 14:11N 30°15' W 042°08'2 0.5 20.9
2015-Mar-26 08:48N 30°13' W 042°10'0 0.0 21.0
2015-Mar-26 08:09N 30°13' W 042°10'0 1.2 21.0
2015-Mar-26 08:05N 30°14' W 042°10'0 4.8 21.0
2015-Mar-26 08:01N 30°13' W 042°11'0 0.3 21.0
2015-Mar-26 07:11N 30°14' W 042°11'2 0.8 21.0
2015-Mar-26 05:10N 30°14' W 042°13'3 0.6 21.1
2015-Mar-26 00:11N 30°15' W 042°16'0 0.0 21.2
2015-Mar-26 00:02N 30°15' W 042°16'1 0.2 21.2
2015-Mar-25 20:35N 30°16' W 042°17'0 0.4 21.3
2015-Mar-25 20:28N 30°16' W 042°17'0 0.8 21.3
2015-Mar-25 20:19N 30°16' W 042°17'0 0.6 21.3
2015-Mar-25 19:45N 30°16' W 042°17'0 0.0 21.3
2015-Mar-25 18:53N 30°16' W 042°17'2 3.2 21.3
2015-Mar-25 18:19N 30°16' W 042°19'0 1.2 21.3
2015-Mar-25 17:58N 30°16' W 042°18'0 0.1 21.4
2015-Mar-25 16:47N 30°16' W 042°18'0 0.0 21.4
2015-Mar-25 16:39N 30°16' W 042°18'0 0.2 21.4
2015-Mar-25 14:58N 30°16' W 042°18'1 2.0 21.3
2015-Mar-25 14:26N 30°17' W 042°17'0 0.2
2015-Mar-25 12:49N 30°17' W 042°17'1 1.3 21.2
2015-Mar-25 11:52N 30°18' W 042°18'0 0.2 21.2
2015-Mar-25 09:58N 30°18' W 042°18'0 3.0 21.2
2015-Mar-25 09:49N 30°18' W 042°18'0 0.8 21.2
2015-Mar-25 09:17N 30°18' W 042°18'0 4.1 21.1
2015-Mar-25 09:12N 30°18' W 042°17'0 0.0 21.1
2015-Mar-25 08:18N 30°18' W 042°17'1 7.8 21.2
2015-Mar-25 08:13N 30°19' W 042°18'0 0.0
2015-Mar-25 07:37N 30°19' W 042°18'0 6.1 21.2
2015-Mar-25 07:34N 30°19' W 042°18'0 0.0 21.2
2015-Mar-25 06:58N 30°19' W 042°18'0 0.5 21.2
2015-Mar-25 06:38N 30°19' W 042°18'118.5 21.2
2015-Mar-25 06:35N 30°20' W 042°18'1 7.9 21.2
2015-Mar-25 06:28N 30°19' W 042°18'1 0.8 21.2
2015-Mar-25 05:20N 30°20' W 042°18'1 5.7 21.2
2015-Mar-25 05:11N 30°21' W 042°18'0 0.0 21.2
2015-Mar-25 03:40N 30°21' W 042°18'1 6.7 21.2
2015-Mar-25 03:35N 30°21' W 042°18'0 0.0 21.2
2015-Mar-25 01:17N 30°21' W 042°18'0 4.4 21.3
2015-Mar-25 01:12N 30°21' W 042°18'1 1.1 21.3
2015-Mar-25 00:31N 30°21' W 042°19'1 0.2 21.3
2015-Mar-24 21:52N 30°21' W 042°18'0 0.0 21.4
2015-Mar-24 20:57N 30°21' W 042°18'0 0.3 21.4
2015-Mar-24 19:56N 30°21' W 042°18'113.8 21.4
2015-Mar-24 19:53N 30°21' W 042°19'0 0.1 21.4
2015-Mar-24 18:11N 30°21' W 042°19'1 0.6 21.4
2015-Mar-24 16:56N 30°21' W 042°18'1 0.5 21.4
2015-Mar-24 15:15N 30°22' W 042°18'1 9.8 21.4
2015-Mar-24 15:11N 30°22' W 042°18'1 0.5 21.4
2015-Mar-24 13:58N 30°22' W 042°18'0 0.0 21.3
2015-Mar-24 13:08N 30°22' W 042°18'0 0.1 21.2
2015-Mar-24 11:30N 30°22' W 042°18'0 5.5 21.2
2015-Mar-24 11:26N 30°23' W 042°18'1 0.3 21.2
2015-Mar-24 08:42N 30°23' W 042°17'0 0.4 21.1
2015-Mar-24 07:58N 30°23' W 042°16'1 0.7 21.1
2015-Mar-24 07:11N 30°24' W 042°16'0 1.2 21.1
2015-Mar-24 07:01N 30°24' W 042°16'0 1.1 21.1
2015-Mar-24 06:54N 30°24' W 042°16'2 0.3 21.1
2015-Mar-24 01:38N 30°25' W 042°16'0 0.4 21.1
2015-Mar-24 00:48N 30°25' W 042°17'0 0.1 21.1
2015-Mar-23 23:58N 30°25' W 042°17'1 0.7 21.1
2015-Mar-23 23:10N 30°25' W 042°16'1 8.2 21.1
2015-Mar-23 23:03N 30°26' W 042°17'1 0.3
2015-Mar-23 20:08N 30°26' W 042°16'0 0.0 21.1
2015-Mar-23 19:48N 30°26' W 042°16'1 0.7 21.1
2015-Mar-23 18:01N 30°27' W 042°17'1 0.8 21.2
2015-Mar-23 17:08N 30°26' W 042°16'1 0.1 21.2
2015-Mar-23 11:52N 30°26' W 042°16'0 1.6
2015-Mar-23 11:50N 30°26' W 042°16'0 0.3 21.1
2015-Mar-23 10:57N 30°26' W 042°16'013.4 21.1
2015-Mar-23 10:55N 30°26' W 042°16'0 0.0 21.1
2015-Mar-23 10:07N 30°26' W 042°16'1 6.1 21.0
2015-Mar-23 10:02N 30°26' W 042°15'0 0.0 21.0
2015-Mar-23 09:12N 30°26' W 042°15'0 0.4 21.1
2015-Mar-23 08:47N 30°26' W 042°15'1 0.3 21.0
2015-Mar-23 06:58N 30°27' W 042°16'1 0.7 21.1
2015-Mar-23 05:43N 30°27' W 042°15'0 0.2 21.1
2015-Mar-23 04:03N 30°27' W 042°15'111.5 21.1
2015-Mar-23 03:56N 30°28' W 042°14'0 0.0 21.1
2015-Mar-23 01:53N 30°28' W 042°14'0 0.1 21.1
2015-Mar-22 22:39N 30°28' W 042°14'   21.1

Dump ship's entire track history